DABB/AAE METAR and TAF weather

Enter ICAO airport designator
Station Type Date Time Source
DABB METAR 2020/01/18 04:30 UTC NOAA

DABB 180430Z 20009KT 9999 FEW023 08/05 Q1030


Station Type Date Time Source
DABB Decoded METAR 2020/01/18 04:30 UTC NOAA

Annaba, Algeria (DABB) 36-50N 007-49E 4M
Jan 17, 2020 - 11:30 PM EST / 2020.01.18 0430 UTC
Wind: from the SSW (200 degrees) at 10 MPH (9 KT):0
Visibility: greater than 7 mile(s):0
Sky conditions: mostly clear
Temperature: 46 F (8 C)
Dew Point: 41 F (5 C)
Relative Humidity: 81%
Pressure (altimeter): 30.42 in. Hg (1030 hPa)
ob: DABB 180430Z 20009KT 9999 FEW023 08/05 Q1030
cycle: 4

Station Type Date Time Source
DABB TAF 2020/01/17 18:40 UTC NOAA

TAF DABB 171700Z 1718/1818 30010KT 9999 FEW026 PROB30
TEMPO 1800/1809 FEW026TCU PROB30
TEMPO 1800/1807 22007KT 2000 BR BKN013
BECMG 1808/1810 24008KT

Example: see airport list